TFM - Tactical Decision Aid (Experimental) INFO Settings
ID: Runway Winds: CIG/VIS Threshold: METAR Board: Map:

KCLT - Charlotte-Douglas Intl

Updated at: 1636 UTC 28 Aug 2016
Latest TAF at: 1502 UTC 28 Aug 2016

TAF Board

Time1615Z28/17Z28/18Z28/19Z28/20Z28/21Z28/22Z28/23Z29/00Z29/01Z29/02Z29/03Z29/04Z29/05Z
TypeOBSPRVLPRVLPRVLPRVLPRVLPRVLPRVLPRVLPRVLPRVLPRVLPRVLPRVL
VIS10>6>6>6>6>6>6>6>6>6>6>6>6>6
CIG----------------------------
CoverSCTFEWFEWFEWFEWFEWFEWFEWFEWFEWFEWFEWFEWFEW
FltCatVFRVFRVFRVFRVFRVFRVFRVFRVFRVFRVFRVFRVFRVFR
WX----------------------------
WDirVRB50505050505050506060606060
WSpd5101010101010101066666
WGst18--------------------------
TAF
KCLT 281502Z 2815/2912 08007KT P6SM OVC012
  FM281700 05010KT P6SM FEW150
  FM290100 06006KT P6SM FEW250
  FM290600 04004KT P6SM SCT040


METAR
KCLT 281615Z VRB05G18KT 10SM SCT022 29/22 A3023 RMK AO2 T02890217
KCLT 281552Z 10009G18KT 10SM BKN020 28/22 A3023 RMK AO2 CIG 015 RWY 36 SLP227 T02830222
KCLT 281534Z 09008G17KT 10SM BKN015 28/22 A3023 RMK AO2 T02780222

TAF/METAR Board Legend

Potential Impact
  None Marginal Slight Moderate High
Visibility (sm) >5 3≤X≤5 1≤X<3 0.5≤X<1 <0.5
Ceiling (100 ft) >30 10≤X≤30 4≤X<10 2≤X<4 <2
Wind Speed (kt) <10 10≤X<20 20≤X<30 ≥30
Wind Gust (kt) <15 15≤X<25 25≤X<35 ≥35
Weather No Wx Reported VCTS -TS,-FZRA TS,FZRA +TS,+FZRA